Time;durP1;ratioP1;P1;durP2;ratioP2;P2;SDS_P1;SDS_P2;PMS_P1;PMS_P2;Temp;Humidity;BMP_temperature;BMP_pressure;BME280_temperature;BME280_humidity;BME280_pressure;Samples;Min_cycle;Max_cycle;Signal;HPM_P1;HPM_P2
2022/10/09 00:00:06;;;;;;;12.70;5.80;;;;;;;11.06;67.93;101029.89;108220;1286;22364;-82
2022/10/09 00:02:59;;;;;;;9.40;5.80;;;;;;;10.98;67.94;101031.34;108089;1286;23626;-83
2022/10/09 00:05:29;;;;;;;9.40;5.50;;;;;;;10.94;68.03;101032.84;108250;1280;24296;-81
2022/10/09 00:07:58;;;;;;;9.70;4.70;;;;;;;10.91;68.18;101031.54;108405;1280;21933;-82
2022/10/09 00:10:28;;;;;;;8.00;4.70;;;;;;;10.89;68.08;101030.89;108339;1280;21951;-81
2022/10/09 00:12:57;;;;;;;10.10;4.80;;;;;;;10.87;68.03;101034.63;108528;1280;21682;-82
2022/10/09 00:15:26;;;;;;;6.60;4.90;;;;;;;10.82;67.99;101036.13;108232;1283;23001;-81
2022/10/09 00:17:55;;;;;;;6.90;4.40;;;;;;;10.80;68.00;101037.39;108170;1283;21955;-81
2022/10/09 00:20:24;;;;;;;9.50;5.10;;;;;;;10.76;68.09;101041.01;108363;1283;23595;-82
2022/10/09 00:22:53;;;;;;;12.50;4.50;;;;;;;10.73;68.20;101042.48;108331;1283;23060;-82
2022/10/09 00:25:22;;;;;;;9.60;4.60;;;;;;;10.72;68.27;101049.66;108243;1284;21998;-82
2022/10/09 00:27:51;;;;;;;11.60;5.20;;;;;;;10.69;68.17;101053.73;108359;1283;21959;-82
2022/10/09 00:30:20;;;;;;;8.00;4.50;;;;;;;10.67;68.11;101059.19;108376;1283;21941;-81
2022/10/09 00:32:49;;;;;;;7.90;4.30;;;;;;;10.64;68.15;101061.52;108300;1280;22283;-82
2022/10/09 00:35:18;;;;;;;6.40;4.30;;;;;;;10.62;68.11;101065.95;108052;1283;22199;-81
2022/10/09 00:37:47;;;;;;;11.50;4.40;;;;;;;10.59;68.14;101067.41;108144;1283;21980;-82
2022/10/09 00:40:16;;;;;;;10.00;4.80;;;;;;;10.56;68.14;101067.48;108039;1284;21961;-82
2022/10/09 00:42:47;;;;;;;7.10;3.70;;;;;;;10.53;68.13;101066.85;108258;1283;22325;-82
2022/10/09 00:45:19;;;;;;;8.00;4.20;;;;;;;10.49;68.14;101061.56;108226;1284;23774;-82
2022/10/09 00:48:11;;;;;;;6.60;4.00;;;;;;;10.46;68.13;101064.44;108260;1283;23697;-82
2022/10/09 00:50:50;;;;;;;9.90;4.40;;;;;;;10.41;68.09;101071.17;108004;1283;21945;-81
2022/10/09 00:53:23;;;;;;;5.60;3.90;;;;;;;10.37;68.29;101072.84;107951;1286;22758;-81
2022/10/09 00:55:52;;;;;;;12.90;4.20;;;;;;;10.36;68.34;101072.01;107988;1287;23006;-81
2022/10/09 00:58:23;;;;;;;4.40;3.40;;;;;;;10.34;68.27;101072.22;107959;1286;21957;-81
2022/10/09 01:00:52;;;;;;;7.70;4.20;;;;;;;10.32;68.27;101073.48;108128;1285;22003;-81
2022/10/09 01:03:21;;;;;;;11.30;3.60;;;;;;;10.30;68.31;101076.31;108031;1286;24311;-81
2022/10/09 01:06:33;;;;;;;8.30;4.70;;;;;;;10.29;68.36;101077.21;108269;1286;23983;-81
2022/10/09 01:09:18;;;;;;;7.50;3.80;;;;;;;10.24;68.39;101082.19;108218;1285;22899;-82
2022/10/09 01:12:41;;;;;;;9.50;4.50;;;;;;;10.21;68.44;101085.73;108665;1280;22066;-88
2022/10/09 01:16:13;;;;;;;10.30;4.60;;;;;;;10.14;68.54;101082.94;108394;1286;23070;-84
2022/10/09 01:19:20;;;;;;;7.30;4.20;;;;;;;10.10;68.48;101085.83;108010;1292;22030;-84
2022/10/09 01:22:21;;;;;;;4.40;3.20;;;;;;;10.08;68.46;101087.61;107787;1291;23627;-81
2022/10/09 01:25:10;;;;;;;8.50;4.10;;;;;;;10.05;68.52;101091.34;107637;1292;21954;-82
2022/10/09 01:27:40;;;;;;;12.40;4.80;;;;;;;10.03;68.52;101091.02;107093;1297;22918;-81
2022/10/09 01:30:12;;;;;;;6.30;3.70;;;;;;;10.02;68.55;101097.67;107037;1298;22833;-81
2022/10/09 01:32:48;;;;;;;7.00;3.80;;;;;;;10.00;68.49;101101.02;107008;1298;23815;-81
2022/10/09 01:35:20;;;;;;;7.10;3.70;;;;;;;9.95;68.57;101101.46;106455;1301;21976;-80
2022/10/09 01:37:52;;;;;;;8.20;4.00;;;;;;;9.92;68.70;101102.41;106392;1303;21972;-80
2022/10/09 01:40:24;;;;;;;5.80;3.90;;;;;;;9.90;68.67;101108.04;106455;1303;24098;-80
2022/10/09 01:42:54;;;;;;;5.80;3.70;;;;;;;9.88;68.65;101108.23;106467;1303;23400;-80
2022/10/09 01:45:23;;;;;;;7.00;4.00;;;;;;;9.87;68.56;101109.15;106581;1298;23063;-80
2022/10/09 01:47:52;;;;;;;6.00;3.60;;;;;;;9.84;68.69;101111.63;107237;1298;23796;-80
2022/10/09 01:50:33;;;;;;;6.40;3.60;;;;;;;9.83;68.77;101111.67;107106;1297;22755;-80
2022/10/09 01:53:10;;;;;;;6.60;3.70;;;;;;;9.79;68.82;101119.76;107100;1288;22439;-80
2022/10/09 01:56:06;;;;;;;6.00;3.40;;;;;;;9.76;68.97;101119.98;108109;1280;21909;-80
2022/10/09 01:58:53;;;;;;;6.00;3.20;;;;;;;9.72;68.97;101120.59;108379;1280;22427;-80
2022/10/09 02:01:34;;;;;;;4.80;3.40;;;;;;;9.69;69.03;101126.75;108227;1280;21941;-79
2022/10/09 02:04:09;;;;;;;6.50;3.80;;;;;;;9.66;68.94;101128.20;108196;1280;24312;-80
2022/10/09 02:06:40;;;;;;;6.60;3.70;;;;;;;9.64;69.00;101125.29;107923;1286;21955;-79
2022/10/09 02:09:15;;;;;;;9.10;3.60;;;;;;;9.63;69.07;101131.75;107878;1286;22030;-80
2022/10/09 02:11:51;;;;;;;7.00;3.50;;;;;;;9.61;69.18;101136.84;107680;1286;23039;-80
2022/10/09 02:14:23;;;;;;;4.70;3.20;;;;;;;9.59;69.13;101139.30;108110;1285;21943;-80
2022/10/09 02:17:04;;;;;;;5.10;3.70;;;;;;;9.56;69.18;101139.54;107804;1286;21971;-81
2022/10/09 02:19:47;;;;;;;5.00;3.70;;;;;;;9.53;69.27;101144.64;107815;1283;21962;-79
2022/10/09 02:22:26;;;;;;;5.60;3.30;;;;;;;9.49;69.27;101147.49;107900;1286;23081;-79
2022/10/09 02:25:02;;;;;;;6.90;2.80;;;;;;;9.46;69.33;101147.04;107933;1280;23103;-79
2022/10/09 02:27:32;;;;;;;6.60;3.90;;;;;;;9.45;69.45;101154.71;108308;1280;23104;-79
2022/10/09 02:30:03;;;;;;;5.70;3.00;;;;;;;9.43;69.49;101151.96;108276;1280;23638;-80
2022/10/09 02:32:32;;;;;;;7.10;3.00;;;;;;;9.40;69.49;101154.81;108163;1280;21945;-82
2022/10/09 02:35:04;;;;;;;7.50;3.20;;;;;;;9.36;69.60;101158.88;108521;1277;21945;-81
2022/10/09 02:37:33;;;;;;;6.90;3.20;;;;;;;9.34;69.68;101162.05;108500;1280;21940;-81
2022/10/09 02:40:02;;;;;;;6.70;3.70;;;;;;;9.33;69.76;101161.01;108473;1280;22381;-81
2022/10/09 02:42:38;;;;;;;6.90;3.20;;;;;;;9.32;69.86;101164.33;108470;1280;24311;-82
2022/10/09 02:45:08;;;;;;;4.30;3.50;;;;;;;9.33;69.94;101161.02;108505;1280;22055;-82
2022/10/09 02:47:37;;;;;;;7.40;3.60;;;;;;;9.33;69.85;101163.45;108203;1283;22256;-81
2022/10/09 02:50:07;;;;;;;7.90;4.50;;;;;;;9.32;69.85;101168.15;108130;1286;22003;-80
2022/10/09 02:52:35;;;;;;;6.70;4.90;;;;;;;9.32;70.01;101170.77;107927;1287;21968;-81
2022/10/09 02:55:04;;;;;;;15.40;5.90;;;;;;;9.30;69.91;101171.49;107642;1289;21964;-82
2022/10/09 02:57:33;;;;;;;9.60;5.80;;;;;;;9.29;69.95;101175.70;106990;1295;22124;-81
2022/10/09 03:00:10;;;;;;;11.30;6.20;;;;;;;9.27;69.97;101184.77;106973;1295;23089;-82
2022/10/09 03:02:39;;;;;;;9.50;5.20;;;;;;;9.26;70.16;101185.48;106737;1301;21993;-81
2022/10/09 03:05:10;;;;;;;8.00;5.10;;;;;;;9.24;70.11;101188.45;106977;1295;21964;-81
2022/10/09 03:07:38;;;;;;;5.50;4.10;;;;;;;9.24;69.99;101192.30;106680;1297;22050;-80
2022/10/09 03:10:09;;;;;;;6.10;4.50;;;;;;;9.21;69.96;101193.22;106690;1300;23635;-82
2022/10/09 03:12:38;;;;;;;5.80;3.80;;;;;;;9.20;70.04;101195.48;106734;1294;21993;-81
2022/10/09 03:15:08;;;;;;;10.50;3.40;;;;;;;9.18;70.15;101195.02;107253;1292;22682;-82
2022/10/09 03:17:37;;;;;;;8.50;4.10;;;;;;;9.14;70.07;101198.36;107793;1291;21970;-81
2022/10/09 03:20:07;;;;;;;5.70;4.10;;;;;;;9.12;70.16;101207.27;107613;1291;21981;-81
2022/10/09 03:22:36;;;;;;;7.30;4.40;;;;;;;9.10;70.24;101210.42;107918;1288;23790;-82
2022/10/09 03:25:05;;;;;;;7.70;3.90;;;;;;;9.08;70.29;101210.12;108009;1280;22700;-82
2022/10/09 03:27:37;;;;;;;10.10;4.00;;;;;;;9.06;70.29;101214.32;108381;1280;21948;-81
2022/10/09 03:30:06;;;;;;;9.10;5.90;;;;;;;9.04;70.28;101209.48;108523;1280;23169;-81
2022/10/09 03:32:35;;;;;;;6.80;4.50;;;;;;;9.01;70.40;101213.18;108583;1280;22716;-81
2022/10/09 03:35:06;;;;;;;7.20;4.40;;;;;;;8.98;70.52;101214.63;108316;1280;21962;-81
2022/10/09 03:37:34;;;;;;;13.10;5.50;;;;;;;8.97;70.59;101215.34;108430;1280;23048;-81
2022/10/09 03:40:04;;;;;;;8.80;4.00;;;;;;;8.94;70.50;101218.00;108406;1280;23796;-82
2022/10/09 03:42:33;;;;;;;5.20;3.90;;;;;;;8.90;70.60;101221.19;108497;1280;22401;-81
2022/10/09 03:45:05;;;;;;;4.90;3.40;;;;;;;8.88;70.66;101222.27;108228;1286;21989;-81
2022/10/09 03:47:34;;;;;;;;;;;;;;;8.88;70.78;101226.27;108225;1285;23769;-82
2022/10/09 03:50:03;;;;;;;6.30;4.30;;;;;;;8.78;70.97;101226.42;108296;1285;22085;-82
2022/10/09 03:52:32;;;;;;;7.50;4.70;;;;;;;8.75;70.83;101230.29;108201;1285;21974;-82
2022/10/09 03:55:01;;;;;;;6.60;3.50;;;;;;;8.74;70.96;101232.58;108310;1285;21942;-82
2022/10/09 03:57:32;;;;;;;10.60;4.60;;;;;;;8.72;70.94;101236.41;107893;1289;22767;-82
2022/10/09 04:00:01;;;;;;;8.70;4.50;;;;;;;8.71;71.02;101238.69;107733;1288;21978;-81
2022/10/09 04:02:33;;;;;;;6.10;4.70;;;;;;;8.70;71.10;101245.64;107739;1286;22716;-81
2022/10/09 04:05:02;;;;;;;8.90;4.80;;;;;;;8.68;71.16;101247.77;108191;1279;23198;-81
2022/10/09 04:07:31;;;;;;;8.20;4.90;;;;;;;8.68;71.09;101249.33;107926;1285;22475;-81
2022/10/09 04:10:01;;;;;;;9.70;5.50;;;;;;;8.68;71.17;101246.71;107665;1290;23115;-82
2022/10/09 04:12:34;;;;;;;9.60;5.50;;;;;;;8.67;71.22;101247.42;107682;1291;21950;-82
2022/10/09 04:15:04;;;;;;;12.10;5.20;;;;;;;8.66;71.28;101249.35;107759;1283;21992;-81
2022/10/09 04:17:33;;;;;;;7.30;4.90;;;;;;;8.64;71.24;101251.28;108252;1285;23707;-81
2022/10/09 04:20:05;;;;;;;8.40;5.20;;;;;;;8.63;71.30;101260.84;108027;1285;21973;-81
2022/10/09 04:22:34;;;;;;;5.50;4.20;;;;;;;8.61;71.30;101261.39;108229;1285;23588;-81
2022/10/09 04:25:03;;;;;;;8.90;4.90;;;;;;;8.59;71.23;101262.30;107952;1285;21963;-81
2022/10/09 04:27:32;;;;;;;9.00;5.10;;;;;;;8.56;71.33;101263.89;108027;1280;22317;-81
2022/10/09 04:30:04;;;;;;;8.20;4.40;;;;;;;8.54;71.26;101267.23;108466;1273;23608;-80
2022/10/09 04:32:35;;;;;;;8.70;4.60;;;;;;;8.50;71.32;101272.83;108469;1279;21958;-81
2022/10/09 04:35:05;;;;;;;8.30;4.20;;;;;;;8.46;71.45;101273.06;108421;1278;21952;-81
2022/10/09 04:37:35;;;;;;;13.90;4.40;;;;;;;8.44;71.56;101276.21;108368;1282;22506;-82
2022/10/09 04:40:04;;;;;;;10.40;4.70;;;;;;;8.43;71.50;101278.82;108510;1280;21952;-83
2022/10/09 04:42:33;;;;;;;8.20;5.20;;;;;;;8.41;71.54;101278.66;108192;1283;23690;-82
2022/10/09 04:45:03;;;;;;;10.00;4.70;;;;;;;8.40;71.63;101282.32;107866;1280;21958;-82
2022/10/09 04:47:33;;;;;;;7.70;4.20;;;;;;;8.40;71.64;101285.79;107800;1288;22438;-82
2022/10/09 04:50:02;;;;;;;10.40;5.30;;;;;;;8.39;71.67;101288.05;107447;1288;21944;-82
2022/10/09 04:52:32;;;;;;;7.40;4.30;;;;;;;8.37;71.59;101291.02;107707;1287;23607;-82
2022/10/09 04:55:01;;;;;;;9.90;4.90;;;;;;;8.35;71.67;101291.57;107649;1286;22909;-81
2022/10/09 04:57:30;;;;;;;17.70;6.20;;;;;;;8.34;71.66;101294.19;107772;1286;22246;-82
2022/10/09 05:00:04;;;;;;;13.50;7.00;;;;;;;8.32;71.69;101299.94;107504;1285;21728;-82
2022/10/09 05:02:37;;;;;;;10.30;6.20;;;;;;;8.29;71.81;101302.74;108062;1280;24295;-81
2022/10/09 05:05:06;;;;;;;11.40;5.80;;;;;;;8.28;71.85;101300.17;108350;1280;21992;-81
2022/10/09 05:07:35;;;;;;;12.50;5.80;;;;;;;8.28;71.91;101308.66;108529;1280;21935;-81
2022/10/09 05:10:06;;;;;;;9.30;5.70;;;;;;;8.29;72.04;101311.25;108521;1280;21957;-81
2022/10/09 05:12:34;;;;;;;13.30;8.00;;;;;;;8.30;72.12;101313.85;108278;1280;21993;-82
2022/10/09 05:15:04;;;;;;;11.10;7.40;;;;;;;8.31;72.25;101319.04;108509;1280;21940;-81
2022/10/09 05:17:35;;;;;;;11.20;7.10;;;;;;;8.31;72.18;101322.34;108366;1270;24447;-80
2022/10/09 05:20:08;;;;;;;9.00;7.20;;;;;;;8.30;72.23;101321.47;108295;1283;22223;-81
2022/10/09 05:22:37;;;;;;;11.80;7.60;;;;;;;8.31;72.20;101325.11;107710;1283;22037;-80
2022/10/09 05:25:11;;;;;;;9.80;6.60;;;;;;;8.31;72.35;101324.23;108272;1283;23277;-81
2022/10/09 05:27:39;;;;;;;12.10;6.30;;;;;;;8.32;72.28;101326.12;108155;1283;23651;-80
2022/10/09 05:30:09;;;;;;;12.60;6.50;;;;;;;8.34;72.38;101323.33;108202;1283;23604;-80
2022/10/09 05:32:38;;;;;;;11.20;6.30;;;;;;;8.34;72.40;101330.42;108253;1273;21961;-80
2022/10/09 05:35:07;;;;;;;8.60;6.90;;;;;;;8.37;72.48;101329.70;108342;1280;21975;-80
2022/10/09 05:37:36;;;;;;;10.30;6.00;;;;;;;8.38;72.58;101331.61;108501;1279;23006;-80
2022/10/09 05:40:06;;;;;;;9.30;7.30;;;;;;;8.40;72.51;101336.97;108489;1278;21949;-80
2022/10/09 05:42:35;;;;;;;12.50;7.40;;;;;;;8.42;72.62;101342.84;108417;1279;21954;-78
2022/10/09 05:45:05;;;;;;;13.60;7.70;;;;;;;8.42;72.50;101343.70;108084;1285;23090;-82
2022/10/09 05:47:34;;;;;;;13.60;7.20;;;;;;;8.44;72.59;101348.73;107942;1286;21946;-83
2022/10/09 05:50:08;;;;;;;11.90;6.80;;;;;;;8.47;72.72;101353.01;107862;1289;22639;-81
2022/10/09 05:52:38;;;;;;;16.40;7.20;;;;;;;8.51;72.77;101357.66;107749;1289;23098;-83
2022/10/09 05:55:08;;;;;;;15.60;9.40;;;;;;;8.54;72.76;101356.23;107668;1289;21992;-83
2022/10/09 05:57:36;;;;;;;18.00;9.80;;;;;;;8.57;72.66;101360.69;107748;1288;21949;-83
2022/10/09 06:00:06;;;;;;;14.50;9.10;;;;;;;8.63;72.83;101361.31;107677;1289;22208;-82
2022/10/09 06:02:39;;;;;;;14.00;8.40;;;;;;;8.68;72.86;101365.23;107857;1284;23053;-83
2022/10/09 06:05:08;;;;;;;14.70;10.10;;;;;;;8.75;72.83;101368.09;108266;1283;23208;-83
2022/10/09 06:07:37;;;;;;;14.00;7.70;;;;;;;8.81;72.73;101368.02;108203;1280;22714;-82
2022/10/09 06:10:07;;;;;;;13.50;7.00;;;;;;;8.86;72.61;101375.73;108423;1280;21931;-83
2022/10/09 06:12:36;;;;;;;10.80;7.30;;;;;;;8.90;72.50;101378.82;108528;1280;21949;-82
2022/10/09 06:15:05;;;;;;;10.50;7.50;;;;;;;8.92;72.42;101378.10;108542;1279;21997;-82
2022/10/09 06:17:34;;;;;;;9.60;6.50;;;;;;;8.95;72.34;101376.30;108241;1280;23107;-82
2022/10/09 06:20:04;;;;;;;10.50;7.80;;;;;;;8.99;72.33;101383.71;108503;1280;23624;-82
2022/10/09 06:22:33;;;;;;;9.00;6.70;;;;;;;9.03;72.41;101388.34;108467;1280;23093;-82
2022/10/09 06:25:02;;;;;;;14.40;6.00;;;;;;;9.07;72.31;101391.93;108449;1278;21958;-82
2022/10/09 06:27:31;;;;;;;10.60;6.90;;;;;;;9.12;72.36;101397.77;108509;1278;21948;-82
2022/10/09 06:30:00;;;;;;;14.30;7.80;;;;;;;9.21;72.44;101403.54;108425;1280;22093;-83
2022/10/09 06:32:29;;;;;;;15.30;9.90;;;;;;;9.27;72.29;101405.02;108362;1280;21953;-82
2022/10/09 06:35:01;;;;;;;17.20;9.50;;;;;;;9.33;72.35;101407.67;108334;1280;22013;-82
2022/10/09 06:37:30;;;;;;;15.40;10.30;;;;;;;9.41;72.35;101407.39;108360;1280;21940;-82
2022/10/09 06:40:02;;;;;;;17.50;9.20;;;;;;;9.48;72.30;101413.52;108405;1266;23075;-82
2022/10/09 06:42:31;;;;;;;16.10;9.20;;;;;;;9.55;72.10;101414.09;108376;1279;21960;-82
2022/10/09 06:45:00;;;;;;;15.60;9.00;;;;;;;9.64;72.03;101413.60;108242;1286;22007;-82
2022/10/09 06:47:29;;;;;;;12.50;6.90;;;;;;;9.73;72.10;101417.77;107995;1286;21942;-82
2022/10/09 06:50:08;;;;;;;8.70;6.90;;;;;;;9.85;71.91;101415.86;108027;1286;21824;-82
2022/10/09 06:52:39;;;;;;;14.10;7.90;;;;;;;9.92;71.92;101421.47;108065;1285;21952;-82
2022/10/09 06:55:11;;;;;;;10.60;7.40;;;;;;;10.05;71.81;101421.40;108274;1284;21936;-81
2022/10/09 06:57:55;;;;;;;11.90;8.10;;;;;;;10.21;71.96;101424.93;108090;1285;22001;-83
2022/10/09 07:01:33;;;;;;;12.60;7.70;;;;;;;10.39;71.87;101432.42;108085;1285;24320;-83
2022/10/09 07:04:30;;;;;;;14.20;7.10;;;;;;;10.51;71.39;101437.25;108457;1279;21974;-82
2022/10/09 07:07:53;;;;;;;9.90;6.50;;;;;;;10.63;71.03;101444.48;108432;1280;23627;-84
2022/10/09 07:10:29;;;;;;;8.20;5.60;;;;;;;10.72;70.44;101447.61;108404;1280;24310;-83
2022/10/09 07:13:12;;;;;;;13.30;5.90;;;;;;;10.79;70.10;101454.77;108445;1269;24354;-82
2022/10/09 07:16:04;;;;;;;14.40;6.60;;;;;;;10.91;70.38;101454.88;108574;1279;21954;-83
2022/10/09 07:18:47;;;;;;;9.70;5.40;;;;;;;11.22;71.43;101455.56;108473;1280;21947;-83
2022/10/09 07:21:23;;;;;;;11.40;6.20;;;;;;;11.67;71.53;101457.30;108402;1280;22013;-83
2022/10/09 07:24:12;;;;;;;13.80;6.30;;;;;;;12.05;70.94;101461.59;108650;1280;21967;-86
2022/10/09 07:27:39;;;;;;;;;;;;;;;;;;;;;
2022/10/09 07:30:33;;;;;;;8.00;4.70;;;;;;;13.01;69.22;101469.39;108237;1283;21952;-86
2022/10/09 07:33:03;;;;;;;7.80;5.30;;;;;;;13.32;67.59;101470.23;108444;1282;23610;-89
2022/10/09 07:35:42;;;;;;;10.70;4.30;;;;;;;13.57;66.52;101469.77;108054;1289;23783;-88
2022/10/09 07:39:10;;;;;;;9.80;5.70;;;;;;;13.80;64.94;101467.10;108380;1289;21958;-87
2022/10/09 07:41:53;;;;;;;6.70;4.00;;;;;;;14.08;64.47;101468.60;108300;1289;22210;-87
2022/10/09 07:45:03;;;;;;;;;;;;;;;;;;;;;
2022/10/09 07:53:47;;;;;;;;;;;;;;;;;;;;;
2022/10/09 07:56:40;;;;;;;9.60;6.40;;;;;;;15.20;60.10;101480.79;108086;1284;21990;-88
2022/10/09 07:59:44;;;;;;;8.30;5.10;;;;;;;15.27;59.31;101481.59;108284;1279;22039;-85
2022/10/09 08:02:21;;;;;;;20.20;5.80;;;;;;;15.31;58.88;101484.58;108202;1281;21945;-85
2022/10/09 08:04:52;;;;;;;9.60;4.20;;;;;;;15.48;58.56;101487.20;108317;1282;22000;-89
2022/10/09 08:07:21;;;;;;;8.40;4.30;;;;;;;15.66;58.58;101491.80;107505;1291;22184;-89
2022/10/09 08:09:57;;;;;;;8.80;4.30;;;;;;;15.89;58.52;101495.94;107783;1288;21957;-86
2022/10/09 08:12:31;;;;;;;10.30;5.00;;;;;;;16.11;57.60;101498.89;107755;1292;22010;-89
2022/10/09 08:15:00;;;;;;;11.60;5.30;;;;;;;16.22;56.90;101501.22;107497;1294;23968;-86
2022/10/09 08:17:44;;;;;;;10.50;5.10;;;;;;;16.34;55.62;101502.66;107359;1293;22841;-86
2022/10/09 08:20:19;;;;;;;9.90;4.60;;;;;;;16.18;54.66;101501.04;107481;1294;21990;-85
2022/10/09 08:22:57;;;;;;;7.20;4.70;;;;;;;16.18;55.48;101504.70;107709;1295;23743;-85
2022/10/09 08:25:37;;;;;;;10.40;5.90;;;;;;;16.29;54.73;101504.41;108030;1286;22260;-84
2022/10/09 08:28:18;;;;;;;19.60;6.30;;;;;;;16.13;53.81;101509.67;108457;1286;21961;-88
2022/10/09 08:31:16;;;;;;;13.80;5.80;;;;;;;16.03;54.04;101509.41;108239;1286;23715;-89
2022/10/09 08:33:54;;;;;;;14.10;6.40;;;;;;;15.78;53.56;101512.70;105207;1283;3748107;-84
2022/10/09 08:36:30;;;;;;;9.20;4.90;;;;;;;15.56;54.09;101509.19;108579;1279;21953;-85
2022/10/09 08:39:05;;;;;;;12.90;4.90;;;;;;;15.44;55.08;101508.42;108744;1279;21939;-86
2022/10/09 08:41:43;;;;;;;8.70;4.50;;;;;;;15.54;56.00;101511.17;108640;1280;21967;-85
2022/10/09 08:44:30;;;;;;;19.80;7.80;;;;;;;15.79;56.33;101512.52;108882;1280;21956;-87
2022/10/09 08:47:23;;;;;;;12.60;5.40;;;;;;;15.99;55.63;101515.37;108579;1280;24534;-83
2022/10/09 08:50:18;;;;;;;8.00;4.00;;;;;;;15.99;54.25;101517.13;108757;1278;21909;-85
2022/10/09 08:53:12;;;;;;;7.90;4.20;;;;;;;15.75;53.64;101517.75;108765;1273;21929;-84
2022/10/09 08:55:54;;;;;;;11.80;4.50;;;;;;;15.46;53.76;101516.27;108687;1278;21952;-84
2022/10/09 08:58:33;;;;;;;11.40;5.30;;;;;;;15.35;54.91;101518.63;108651;1279;24911;-87
2022/10/09 09:02:15;;;;;;;13.40;4.90;;;;;;;15.30;54.93;101519.01;108789;1280;21933;-84
2022/10/09 09:05:14;;;;;;;10.40;5.00;;;;;;;15.08;55.15;101524.04;108536;1286;21999;-85
2022/10/09 09:08:04;;;;;;;8.30;4.30;;;;;;;14.92;55.47;101525.52;108104;1286;22697;-85
2022/10/09 09:10:46;;;;;;;10.10;4.80;;;;;;;14.82;55.81;101526.23;108186;1286;21976;-84
2022/10/09 09:13:29;;;;;;;7.30;3.90;;;;;;;14.80;56.17;101520.86;108254;1288;22246;-85
2022/10/09 09:17:08;;;;;;;12.60;5.40;;;;;;;14.83;56.55;101520.95;108313;1284;21997;-86
2022/10/09 09:20:07;;;;;;;15.40;13.90;;;;;;;15.06;57.52;101521.98;109010;1261;23622;-89
2022/10/09 09:22:48;;;;;;;10.50;5.00;;;;;;;15.39;57.26;101526.86;108820;1281;21888;-86
2022/10/09 09:25:24;;;;;;;11.30;5.30;;;;;;;15.61;56.33;101525.13;108680;1282;21964;-85
2022/10/09 09:28:11;;;;;;;8.90;4.10;;;;;;;15.74;55.94;101528.32;108600;1283;22831;-84
2022/10/09 09:30:56;;;;;;;10.40;3.30;;;;;;;15.93;55.17;101525.63;108579;1279;21901;-84
2022/10/09 09:34:06;;;;;;;8.00;2.80;;;;;;;15.96;54.65;101525.86;108703;1279;21935;-84
2022/10/09 09:36:59;;;;;;;7.80;4.20;;;;;;;16.04;54.34;101527.79;108610;1281;21954;-84
2022/10/09 09:40:03;;;;;;;8.30;3.90;;;;;;;16.04;53.28;101524.48;108636;1281;21933;-83
2022/10/09 09:46:54;;;;;;;8.60;3.90;;;;;;;16.03;53.29;101528.02;108918;1279;21900;-85
2022/10/09 09:49:40;;;;;;;7.90;3.30;;;;;;;16.08;52.79;101528.17;109041;1280;23736;-84
2022/10/09 09:52:42;;;;;;;9.70;4.10;;;;;;;16.26;53.22;101523.20;108353;1285;22055;-84
2022/10/09 09:55:28;;;;;;;11.60;4.00;;;;;;;16.61;52.94;101523.41;108480;1286;23691;-86
2022/10/09 09:58:07;;;;;;;6.80;3.30;;;;;;;16.98;52.46;101520.39;107916;1284;21961;-84
2022/10/09 10:01:07;;;;;;;7.10;3.50;;;;;;;17.41;51.71;101522.23;107882;1285;23830;-87
2022/10/09 10:04:39;;;;;;;11.80;4.40;;;;;;;17.80;50.63;101520.91;107521;1289;21957;-88
2022/10/09 10:09:34;;;;;;;8.50;4.80;;;;;;;18.47;49.56;101514.48;106775;1301;21976;-86
2022/10/09 10:12:20;;;;;;;7.90;3.40;;;;;;;18.54;47.98;101517.67;106590;1297;21998;-88
2022/10/09 10:15:24;;;;;;;7.10;3.20;;;;;;;18.66;47.46;101511.56;106459;1303;21977;-88
2022/10/09 10:18:19;;;;;;;8.10;2.70;;;;;;;18.93;47.56;101513.84;106535;1306;22240;-85
2022/10/09 10:21:10;;;;;;;7.90;3.00;;;;;;;19.28;47.37;101517.39;106202;1307;21994;-86
2022/10/09 10:24:04;;;;;;;9.90;3.30;;;;;;;19.51;45.76;101519.64;106269;1307;22091;-86
2022/10/09 10:26:55;;;;;;;7.10;2.50;;;;;;;19.48;44.41;101525.13;106284;1307;22091;-85
2022/10/09 10:29:42;;;;;;;6.00;2.60;;;;;;;19.32;44.69;101523.20;106318;1301;23090;-86
2022/10/09 10:32:53;;;;;;;6.70;2.70;;;;;;;19.15;44.20;101523.05;106340;1301;21995;-86
2022/10/09 10:35:37;;;;;;;12.00;3.50;;;;;;;18.75;43.71;101520.27;106433;1301;23267;-85
2022/10/09 10:38:43;;;;;;;10.20;2.90;;;;;;;18.20;43.73;101524.70;106792;1294;21997;-85
2022/10/09 10:41:32;;;;;;;11.20;3.20;;;;;;;17.79;45.29;101522.90;108156;1280;21955;-85
2022/10/09 10:44:46;;;;;;;8.10;5.30;;;;;;;18.07;47.30;101522.02;108563;1280;22603;-85
2022/10/09 10:47:33;;;;;;;12.70;4.00;;;;;;;18.41;45.73;101525.39;108580;1277;21925;-85
2022/10/09 10:50:12;;;;;;;8.80;2.50;;;;;;;18.18;44.12;101527.63;108663;1279;21951;-85
2022/10/09 10:52:57;;;;;;;6.40;2.60;;;;;;;17.68;43.86;101529.73;108630;1280;21932;-85
2022/10/09 10:56:06;;;;;;;8.00;2.90;;;;;;;17.22;45.05;101527.86;108310;1284;22029;-85
2022/10/09 10:59:17;;;;;;;11.10;3.20;;;;;;;17.27;46.69;101527.84;108282;1285;21937;-83
2022/10/09 11:02:41;;;;;;;6.50;3.10;;;;;;;17.49;46.47;101526.59;108252;1283;21949;-84
2022/10/09 11:06:17;;;;;;;9.80;3.90;;;;;;;17.57;45.39;101529.22;108133;1283;21969;-84
2022/10/09 11:10:05;;;;;;;7.50;3.30;;;;;;;17.44;44.78;101531.92;108019;1286;22116;-83
2022/10/09 11:13:22;;;;;;;6.30;2.60;;;;;;;17.14;44.49;101529.14;108049;1284;22116;-90
2022/10/09 11:16:49;;;;;;;8.00;2.50;;;;;;;16.85;44.90;101527.63;108405;1282;21974;-82
2022/10/09 11:19:49;;;;;;;14.90;3.70;;;;;;;16.62;45.32;101526.17;108484;1283;21962;-82
2022/10/09 11:23:25;;;;;;;8.80;2.30;;;;;;;16.39;45.69;101523.85;108384;1282;22187;-86
2022/10/09 11:26:33;;;;;;;8.60;2.50;;;;;;;16.22;46.11;101522.63;108362;1275;23103;-86
2022/10/09 11:30:04;;;;;;;;;;;;;;;;;;;;;
2022/10/09 11:32:53;;;;;;;7.50;2.40;;;;;;;15.71;46.59;101518.95;108466;1280;23611;-84
2022/10/09 11:36:11;;;;;;;6.70;2.90;;;;;;;15.59;47.06;101519.42;108568;1275;21965;-86
2022/10/09 11:39:07;;;;;;;6.20;2.40;;;;;;;15.47;47.72;101515.70;108611;1278;23052;-88
2022/10/09 11:41:41;;;;;;;4.90;2.10;;;;;;;15.42;47.95;101510.10;108515;1278;23047;-85
2022/10/09 11:44:46;;;;;;;5.40;2.10;;;;;;;15.39;47.88;101508.15;108690;1278;22276;-84
2022/10/09 11:47:37;;;;;;;5.80;1.70;;;;;;;15.31;47.91;101507.92;108597;1284;21941;-84
2022/10/09 11:50:45;;;;;;;7.20;2.20;;;;;;;15.22;48.14;101497.39;108650;1285;21954;-85
2022/10/09 11:53:26;;;;;;;6.10;2.40;;;;;;;15.18;48.69;101504.00;108701;1281;21943;-87
2022/10/09 11:57:04;;;;;;;9.40;2.70;;;;;;;15.20;48.84;101503.05;108296;1285;22733;-84
2022/10/09 12:03:38;;;;;;;9.10;2.20;;;;;;;15.24;48.84;101504.69;108128;1287;24301;-85
2022/10/09 12:06:18;;;;;;;4.70;1.90;;;;;;;15.28;48.82;101499.98;107850;1282;23678;-85
2022/10/09 12:09:08;;;;;;;7.10;2.70;;;;;;;15.33;48.86;101496.63;108041;1282;22726;-86
2022/10/09 12:12:07;;;;;;;7.30;2.30;;;;;;;15.36;48.93;101490.02;107829;1287;22068;-85
2022/10/09 12:14:57;;;;;;;4.20;1.70;;;;;;;15.38;48.59;101490.43;107744;1288;23688;-83
2022/10/09 12:17:52;;;;;;;6.40;2.10;;;;;;;15.39;48.15;101489.00;107830;1288;22697;-85
2022/10/09 12:20:27;;;;;;;3.40;1.50;;;;;;;15.40;47.99;101490.19;107852;1289;21984;-86
2022/10/09 12:23:39;;;;;;;6.50;2.20;;;;;;;15.39;47.59;101484.61;107710;1288;22052;-85
2022/10/09 12:26:34;;;;;;;7.00;5.00;;;;;;;15.38;47.44;101487.98;107761;1289;22108;-84
2022/10/09 12:34:58;;;;;;;7.10;2.30;;;;;;;15.41;47.41;101480.49;107515;1297;23062;-84
2022/10/09 12:37:48;;;;;;;6.20;3.20;;;;;;;15.49;47.55;101476.86;106836;1298;22472;-82
2022/10/09 12:40:31;;;;;;;7.00;3.00;;;;;;;15.58;47.55;101478.58;107135;1291;21977;-81
2022/10/09 12:43:16;;;;;;;8.20;3.30;;;;;;;15.65;47.24;101478.67;107034;1295;22337;-84
2022/10/09 12:45:57;;;;;;;6.20;2.40;;;;;;;15.67;47.07;101481.73;107160;1295;23647;-82
2022/10/09 12:48:41;;;;;;;5.30;2.10;;;;;;;15.61;46.73;101476.70;106981;1295;22030;-81
2022/10/09 12:51:32;;;;;;;7.50;3.80;;;;;;;15.62;46.83;101472.80;107054;1296;23052;-82